Time;durP1;ratioP1;P1;durP2;ratioP2;P2;SDS_P1;SDS_P2;PMS_P1;PMS_P2;Temp;Humidity;BMP_temperature;BMP_pressure;BME280_temperature;BME280_humidity;BME280_pressure;Samples;Min_cycle;Max_cycle;Signal;HPM_P1;HPM_P2
2021/05/31 00:01:03;;;;;;;7.93;5.80;;;;;;;11.92;56.18;101030.28;124694;1097;103049;-82
2021/05/31 00:03:31;;;;;;;10.05;6.13;;;;;;;11.89;56.69;101036.56;124958;1104;103151;-82
2021/05/31 00:05:59;;;;;;;8.23;6.20;;;;;;;11.83;56.98;101034.02;125250;1101;103071;-82
2021/05/31 00:08:26;;;;;;;8.80;5.63;;;;;;;11.77;57.13;101037.70;125254;1101;103139;-82
2021/05/31 00:10:54;;;;;;;10.17;6.53;;;;;;;11.73;56.95;101038.68;125273;1096;103329;-83
2021/05/31 00:13:21;;;;;;;7.73;5.55;;;;;;;11.71;57.19;101037.81;125331;1101;103051;-82
2021/05/31 00:15:50;;;;;;;9.37;6.50;;;;;;;11.66;57.50;101035.27;125329;1101;103409;-82
2021/05/31 00:18:32;;;;;;;8.17;6.63;;;;;;;11.62;57.33;101036.23;125441;1101;102921;-82
2021/05/31 00:20:59;;;;;;;10.57;7.23;;;;;;;11.63;57.60;101031.77;125521;1101;103130;-83
2021/05/31 00:23:26;;;;;;;12.80;5.80;;;;;;;11.58;57.99;101038.98;125550;1101;103045;-83
2021/05/31 00:25:56;;;;;;;8.83;6.73;;;;;;;11.53;57.77;101037.29;125536;1101;103208;-82
2021/05/31 00:28:24;;;;;;;6.60;5.63;;;;;;;11.52;57.86;101024.85;125541;1101;103200;-82
2021/05/31 00:30:51;;;;;;;7.03;6.23;;;;;;;11.47;58.37;101024.06;125312;1096;103082;-82
2021/05/31 00:33:18;;;;;;;5.95;5.45;;;;;;;11.42;58.18;101023.27;125510;1101;103134;-82
2021/05/31 00:35:47;;;;;;;8.03;7.17;;;;;;;11.34;58.65;101027.88;125490;1096;103757;-82
2021/05/31 00:38:28;;;;;;;8.20;6.27;;;;;;;11.33;58.65;101023.48;125226;1101;103062;-82
2021/05/31 00:40:56;;;;;;;8.37;6.37;;;;;;;11.33;58.88;101023.48;125217;1101;103102;-82
2021/05/31 00:43:25;;;;;;;7.88;6.35;;;;;;;11.35;58.45;101022.52;125743;1096;102955;-82
2021/05/31 00:45:52;;;;;;;8.75;6.43;;;;;;;11.35;58.51;101022.52;125553;1101;103862;-82
2021/05/31 00:48:19;;;;;;;12.60;7.07;;;;;;;11.31;58.61;101015.48;125445;1096;103061;-83
2021/05/31 00:50:47;;;;;;;8.53;7.60;;;;;;;11.28;58.73;101014.69;125652;1096;103131;-82
2021/05/31 00:53:15;;;;;;;11.53;7.47;;;;;;;11.27;58.56;101004.92;125612;1096;103156;-83
2021/05/31 00:55:57;;;;;;;8.28;6.40;;;;;;;11.23;58.50;101008.56;125543;1096;104135;-83
2021/05/31 00:58:27;;;;;;;8.70;7.25;;;;;;;11.21;58.46;101006.80;125366;1096;103304;-83
2021/05/31 01:00:56;;;;;;;12.78;7.38;;;;;;;11.21;58.92;101009.47;125571;1101;103055;-82
2021/05/31 01:03:25;;;;;;;9.93;6.23;;;;;;;11.18;58.60;100996.20;125557;1104;103059;-82
2021/05/31 01:06:07;;;;;;;8.75;6.40;;;;;;;11.19;58.81;101005.94;125367;1096;103923;-83
2021/05/31 01:09:02;;;;;;;7.70;6.30;;;;;;;11.18;58.25;101009.53;125358;1101;103053;-83
2021/05/31 01:11:33;;;;;;;6.83;5.80;;;;;;;11.17;59.12;101002.44;125585;1101;103176;-82
2021/05/31 01:14:42;;;;;;;11.75;6.70;;;;;;;11.12;58.50;101003.44;125214;1104;103169;-82
2021/05/31 01:17:16;;;;;;;7.23;6.00;;;;;;;11.15;58.60;101008.70;125231;1104;103130;-82
2021/05/31 01:19:49;;;;;;;8.38;5.13;;;;;;;11.13;58.60;101007.84;125114;1099;103532;-83
2021/05/31 01:22:17;;;;;;;6.53;5.33;;;;;;;11.11;58.59;101002.54;125167;1104;103145;-81
2021/05/31 01:24:51;;;;;;;7.48;5.88;;;;;;;11.13;58.67;101005.17;125145;1104;103167;-82
2021/05/31 01:27:22;;;;;;;8.47;5.67;;;;;;;11.12;58.85;101000.77;125209;1099;103141;-83
2021/05/31 01:30:12;;;;;;;7.83;5.10;;;;;;;11.08;58.65;101005.27;127010;1107;101849;-84
2021/05/31 01:32:54;;;;;;;7.28;5.88;;;;;;;11.01;58.73;101004.51;127049;1108;101079;-83
2021/05/31 01:35:27;;;;;;;8.73;6.35;;;;;;;11.04;58.63;101006.23;124831;1102;103295;-82
2021/05/31 01:37:55;;;;;;;8.80;6.30;;;;;;;11.02;58.47;101002.71;127000;1108;101748;-83
2021/05/31 01:40:23;;;;;;;7.50;6.10;;;;;;;11.02;58.73;101003.61;125586;1108;103129;-83
2021/05/31 01:42:52;;;;;;;7.97;6.30;;;;;;;11.06;58.38;101009.73;124823;1108;103134;-82
2021/05/31 01:45:20;;;;;;;8.25;6.65;;;;;;;11.08;58.48;101005.27;125937;1108;103347;-83
2021/05/31 01:47:48;;;;;;;7.65;6.03;;;;;;;11.03;58.24;101005.34;124684;1108;103779;-83
2021/05/31 01:50:15;;;;;;;6.25;5.25;;;;;;;10.99;58.48;101003.64;125751;1108;103018;-83
2021/05/31 01:52:45;;;;;;;9.67;5.73;;;;;;;10.96;58.73;101003.71;124977;1099;103229;-83
2021/05/31 01:55:15;;;;;;;9.60;6.50;;;;;;;10.93;58.65;101001.11;126822;1104;103240;-82
2021/05/31 01:57:44;;;;;;;7.58;5.38;;;;;;;10.90;58.87;101003.81;125254;1104;103595;-83
2021/05/31 02:00:13;;;;;;;6.17;5.33;;;;;;;10.85;58.78;101003.91;125237;1099;103174;-83
2021/05/31 02:02:50;;;;;;;7.23;5.60;;;;;;;10.81;59.02;101004.87;125248;1104;103675;-83
2021/05/31 02:05:18;;;;;;;8.30;6.10;;;;;;;10.75;58.93;100998.77;125145;1104;103237;-82
2021/05/31 02:07:59;;;;;;;7.80;5.55;;;;;;;10.70;59.28;100998.83;125316;1101;103454;-83
2021/05/31 02:10:27;;;;;;;5.93;4.83;;;;;;;10.66;59.21;101006.02;125459;1101;103214;-82
2021/05/31 02:12:59;;;;;;;10.77;5.03;;;;;;;10.69;59.00;100997.97;125463;1101;103135;-82
2021/05/31 02:15:40;;;;;;;5.70;5.10;;;;;;;10.70;59.12;101004.16;125240;1101;103316;-82
2021/05/31 02:18:14;;;;;;;7.95;4.73;;;;;;;10.71;58.98;101008.59;125489;1096;103026;-82
2021/05/31 02:20:44;;;;;;;6.70;5.23;;;;;;;10.70;58.89;101014.81;124870;1101;104400;-83
2021/05/31 02:23:14;;;;;;;5.63;5.00;;;;;;;10.65;59.01;101008.68;125111;1096;103164;-82
2021/05/31 02:25:41;;;;;;;9.75;5.05;;;;;;;10.64;58.84;101013.14;124893;1097;103020;-82
2021/05/31 02:28:08;;;;;;;6.68;4.75;;;;;;;10.59;59.45;101009.67;125175;1095;103267;-82
2021/05/31 02:30:36;;;;;;;8.27;5.13;;;;;;;10.63;59.06;101011.38;125137;1101;103102;-83
2021/05/31 02:33:05;;;;;;;10.50;5.30;;;;;;;10.62;59.03;101016.73;125174;1101;103333;-81
2021/05/31 02:35:37;;;;;;;7.18;4.40;;;;;;;10.58;59.17;101015.90;125637;1096;103058;-83
2021/05/31 02:38:06;;;;;;;7.77;5.67;;;;;;;10.59;59.29;101020.33;125372;1101;103009;-83
2021/05/31 02:40:35;;;;;;;6.15;4.55;;;;;;;10.52;59.21;101008.03;125575;1101;103213;-82
2021/05/31 02:43:09;;;;;;;6.73;5.00;;;;;;;10.54;59.03;101017.75;124924;1104;103102;-82
2021/05/31 02:45:38;;;;;;;5.30;4.68;;;;;;;10.52;59.12;101008.89;125362;1101;103138;-84
2021/05/31 02:48:08;;;;;;;8.05;4.70;;;;;;;10.54;59.33;101012.42;125647;1101;103078;-83
2021/05/31 02:50:35;;;;;;;9.75;4.98;;;;;;;10.53;59.39;101012.46;125234;1096;103435;-83
2021/05/31 02:53:04;;;;;;;7.87;5.10;;;;;;;10.52;59.51;101014.22;125075;1097;103057;-83
2021/05/31 02:55:33;;;;;;;7.83;4.30;;;;;;;10.45;59.53;101017.91;125098;1101;103205;-82
2021/05/31 02:58:00;;;;;;;8.43;4.77;;;;;;;10.43;59.46;101013.50;124834;1101;103250;-83
2021/05/31 03:00:29;;;;;;;8.03;4.67;;;;;;;10.38;59.76;101018.88;125684;1101;103070;-84
2021/05/31 03:02:56;;;;;;;5.50;4.80;;;;;;;10.35;59.47;101024.27;125553;1096;103148;-82
2021/05/31 03:05:28;;;;;;;5.00;4.27;;;;;;;10.35;59.55;101021.60;125281;1101;103135;-83
2021/05/31 03:08:09;;;;;;;6.33;4.73;;;;;;;10.38;60.04;101018.88;125300;1101;103203;-82
2021/05/31 03:10:37;;;;;;;6.53;5.40;;;;;;;10.43;59.70;101017.03;125478;1101;103051;-83
2021/05/31 03:13:05;;;;;;;6.45;5.50;;;;;;;10.49;59.47;101006.29;125485;1101;103054;-82
2021/05/31 03:15:33;;;;;;;7.23;4.70;;;;;;;10.53;59.57;101012.46;125223;1102;103491;-84
2021/05/31 03:18:00;;;;;;;16.13;5.87;;;;;;;10.55;59.83;101002.64;125584;1101;103118;-84
2021/05/31 03:20:29;;;;;;;4.33;3.87;;;;;;;10.56;59.79;101007.07;125439;1101;103083;-85
2021/05/31 03:22:57;;;;;;;7.83;5.48;;;;;;;10.62;59.34;101009.64;125625;1101;102976;-86
2021/05/31 03:25:26;;;;;;;8.25;4.73;;;;;;;10.68;59.55;101011.31;125548;1101;102969;-84
2021/05/31 03:27:54;;;;;;;7.07;4.70;;;;;;;10.75;59.55;101006.77;125280;1102;103022;-83
2021/05/31 03:30:36;;;;;;;5.83;5.03;;;;;;;10.73;59.19;101009.46;125589;1096;104748;-83
2021/05/31 03:33:04;;;;;;;7.95;5.30;;;;;;;10.74;59.26;101008.53;125570;1101;103049;-83
2021/05/31 03:35:31;;;;;;;5.33;4.87;;;;;;;10.78;59.40;101006.70;125476;1096;103118;-83
2021/05/31 03:37:59;;;;;;;7.53;6.20;;;;;;;10.74;59.35;101008.53;125509;1101;103520;-81
2021/05/31 03:40:30;;;;;;;7.10;5.73;;;;;;;10.70;59.33;101012.16;125248;1101;103152;-84
2021/05/31 03:42:58;;;;;;;7.23;4.90;;;;;;;10.71;59.71;101006.79;125311;1103;103200;-85
2021/05/31 03:45:25;;;;;;;9.43;5.23;;;;;;;10.74;59.48;101011.19;126391;1096;103014;-84
2021/05/31 03:47:53;;;;;;;10.17;5.60;;;;;;;10.75;59.17;101020.08;125117;1104;103173;-82
2021/05/31 03:50:21;;;;;;;10.20;5.73;;;;;;;10.75;59.40;101022.75;125174;1101;103234;-83
2021/05/31 03:52:49;;;;;;;12.00;6.35;;;;;;;10.74;59.22;101019.19;125089;1104;103069;-83
2021/05/31 03:55:18;;;;;;;11.73;5.60;;;;;;;10.78;59.17;101018.26;125325;1102;101893;-83
2021/05/31 03:57:45;;;;;;;7.65;4.85;;;;;;;10.78;59.08;101018.26;125444;1101;101749;-80
2021/05/31 04:00:14;;;;;;;8.43;5.67;;;;;;;10.74;59.27;101011.19;125224;1096;103196;-84
2021/05/31 04:02:43;;;;;;;8.28;5.40;;;;;;;10.77;59.36;101008.50;125579;1101;103098;-83
2021/05/31 04:05:13;;;;;;;9.50;5.77;;;;;;;10.82;59.46;101011.97;125372;1101;103897;-83
2021/05/31 04:13:15;;;;;;;6.50;4.80;;;;;;;10.99;58.82;101013.44;125638;1101;103173;-83
2021/05/31 04:15:43;;;;;;;9.38;5.15;;;;;;;11.06;58.95;101008.88;125436;1101;103087;-83
2021/05/31 04:18:10;;;;;;;10.88;5.15;;;;;;;11.13;58.61;101008.73;125318;1101;103193;-84
2021/05/31 04:20:39;;;;;;;12.90;5.80;;;;;;;11.17;58.32;101012.23;125162;1096;103155;-82
2021/05/31 04:23:06;;;;;;;8.13;5.13;;;;;;;11.17;58.30;101009.56;125166;1101;103061;-85
2021/05/31 04:25:48;;;;;;;10.30;4.73;;;;;;;11.13;58.18;101015.83;125363;1101;103117;-86
2021/05/31 04:28:30;;;;;;;8.50;4.10;;;;;;;11.14;58.61;101018.50;125366;1096;103884;-85
2021/05/31 04:30:58;;;;;;;5.80;4.40;;;;;;;11.16;59.22;101013.13;125286;1096;103112;-82
2021/05/31 04:33:39;;;;;;;7.57;4.23;;;;;;;11.25;58.07;101010.30;125510;1101;103142;-93
2021/05/31 04:36:22;;;;;;;4.73;4.27;;;;;;;11.29;57.41;101011.09;125233;1104;103184;-83
2021/05/31 04:38:49;;;;;;;9.03;6.17;;;;;;;11.37;57.45;101006.51;125192;1097;103432;-83
2021/05/31 04:41:21;;;;;;;6.77;4.00;;;;;;;11.42;57.29;101004.60;125474;1101;103055;-83
2021/05/31 04:44:04;;;;;;;7.00;4.73;;;;;;;11.43;56.55;101013.50;125536;1101;103153;-84
2021/05/31 04:46:31;;;;;;;9.38;4.63;;;;;;;11.48;56.60;101014.30;125711;1096;103243;-84
2021/05/31 04:49:03;;;;;;;6.48;3.75;;;;;;;11.52;57.19;101008.84;125564;1101;103256;-84
2021/05/31 04:51:31;;;;;;;6.93;4.40;;;;;;;11.61;56.56;101004.23;125333;1101;102889;-84
2021/05/31 04:53:59;;;;;;;4.70;4.03;;;;;;;11.69;57.02;101003.17;125697;1101;103340;-85
2021/05/31 04:56:27;;;;;;;8.08;4.53;;;;;;;11.76;56.26;101005.72;125324;1096;103066;-86
2021/05/31 04:58:55;;;;;;;7.20;4.50;;;;;;;11.75;56.61;101006.63;125296;1102;103075;-85
2021/05/31 05:01:22;;;;;;;7.18;3.85;;;;;;;11.78;55.89;101006.55;125423;1104;103171;-84
2021/05/31 05:03:50;;;;;;;7.65;4.30;;;;;;;11.87;56.10;101001.01;125609;1101;103805;-85
2021/05/31 05:06:17;;;;;;;12.55;5.00;;;;;;;12.00;56.17;101007.86;125479;1102;103352;-86
2021/05/31 05:08:45;;;;;;;4.83;4.28;;;;;;;12.13;55.16;101004.91;125702;1101;102975;-85
2021/05/31 05:11:12;;;;;;;10.23;4.23;;;;;;;12.26;56.03;101011.75;125386;1101;103077;-86
2021/05/31 05:13:40;;;;;;;8.27;4.63;;;;;;;12.35;55.32;101010.63;125637;1096;103151;-85
2021/05/31 05:16:09;;;;;;;10.50;5.98;;;;;;;12.32;54.85;101011.58;125576;1101;101913;-86
2021/05/31 05:18:44;;;;;;;8.23;4.45;;;;;;;12.32;55.18;101016.92;125435;1096;103139;-82
2021/05/31 05:21:12;;;;;;;10.80;4.60;;;;;;;12.33;55.73;101023.16;127684;1101;101005;-88
2021/05/31 05:23:40;;;;;;;8.60;3.90;;;;;;;12.29;54.58;101022.34;127865;1101;101292;-87
2021/05/31 05:26:08;;;;;;;8.60;4.20;;;;;;;12.28;55.66;101019.72;126798;1101;102999;-86
2021/05/31 05:28:37;;;;;;;7.63;4.20;;;;;;;12.35;54.72;101021.31;125866;1101;103160;-85
2021/05/31 05:31:10;;;;;;;12.90;4.97;;;;;;;12.50;54.11;101020.06;125871;1096;103059;-85
2021/05/31 05:33:42;;;;;;;7.00;3.77;;;;;;;12.66;53.91;101023.23;125796;1101;102969;-85
2021/05/31 05:41:45;;;;;;;9.18;4.80;;;;;;;13.09;52.73;101014.13;126850;1101;101189;-82
2021/05/31 05:47:32;;;;;;;5.90;3.60;;;;;;;13.40;52.03;101015.98;125429;1101;103241;-81
2021/05/31 05:49:45;;;;;;;7.40;3.63;;;;;;;13.56;51.99;101012.88;125538;1101;103025;-83
2021/05/31 05:52:17;;;;;;;6.10;4.00;;;;;;;13.68;51.88;101007.16;125406;1101;103112;-83
2021/05/31 05:54:45;;;;;;;12.80;3.90;;;;;;;13.80;51.27;101006.78;125440;1096;103085;-83
2021/05/31 05:57:12;;;;;;;13.40;4.07;;;;;;;13.92;51.70;101004.67;125528;1101;103008;-83
2021/05/31 05:59:40;;;;;;;12.23;4.10;;;;;;;13.98;49.72;101012.50;125453;1101;103049;-84
2021/05/31 06:02:09;;;;;;;10.60;4.30;;;;;;;13.99;49.02;101004.41;125424;1096;103030;-91
2021/05/31 06:04:39;;;;;;;15.55;4.65;;;;;;;14.03;48.99;101006.09;125321;1096;102998;-81
2021/05/31 06:07:07;;;;;;;7.40;3.20;;;;;;;14.11;49.29;101008.52;125460;1101;103083;-85
2021/05/31 06:09:35;;;;;;;7.93;4.23;;;;;;;14.21;49.09;101007.31;125255;1101;103078;-78
2021/05/31 06:12:03;;;;;;;6.33;3.43;;;;;;;14.32;48.88;101000.73;124412;1096;103231;-79
2021/05/31 06:14:44;;;;;;;5.43;3.18;;;;;;;14.44;46.11;101000.33;124943;1104;103074;-80
2021/05/31 06:17:12;;;;;;;6.77;3.47;;;;;;;14.50;46.66;101008.17;125391;1096;103530;-82
2021/05/31 06:19:39;;;;;;;4.07;3.00;;;;;;;14.54;46.62;101008.93;125332;1101;103016;-84
2021/05/31 06:22:08;;;;;;;4.20;2.40;;;;;;;14.51;45.91;101012.63;125096;1096;103078;-82
2021/05/31 06:24:36;;;;;;;4.43;2.95;;;;;;;14.49;45.71;101017.14;125191;1096;103098;-83
2021/05/31 06:27:05;;;;;;;5.78;3.80;;;;;;;14.51;46.75;101003.69;124904;1097;103056;-81
2021/05/31 06:29:32;;;;;;;8.70;3.88;;;;;;;14.62;46.60;101011.36;125159;1101;103062;-83
2021/05/31 06:32:00;;;;;;;4.47;2.73;;;;;;;14.70;45.20;101014.69;124958;1096;103142;-83
2021/05/31 06:34:28;;;;;;;14.13;3.63;;;;;;;14.79;45.08;101002.80;125340;1096;103173;-81
2021/05/31 06:36:56;;;;;;;5.03;2.40;;;;;;;15.00;44.71;101011.91;125454;1096;103074;-81
2021/05/31 06:39:24;;;;;;;7.67;3.80;;;;;;;15.20;46.35;101013.88;125447;1101;103237;-82
2021/05/31 06:41:52;;;;;;;6.58;3.78;;;;;;;15.38;45.76;101009.64;125414;1096;103056;-85
2021/05/31 06:44:33;;;;;;;6.87;3.07;;;;;;;15.53;45.27;101006.40;125461;1101;103520;-81
2021/05/31 06:47:16;;;;;;;8.73;3.03;;;;;;;15.62;44.60;101009.66;125115;1096;103081;-80
2021/05/31 06:49:45;;;;;;;3.08;2.70;;;;;;;15.74;43.09;101006.54;124966;1097;103502;-80
2021/05/31 06:52:13;;;;;;;6.85;3.38;;;;;;;15.86;43.56;101014.16;127395;1104;101953;-81
2021/05/31 06:54:40;;;;;;;6.13;2.73;;;;;;;15.94;41.18;101002.22;125930;1104;103107;-83
2021/05/31 06:57:08;;;;;;;6.35;2.90;;;;;;;15.96;41.49;101005.73;125035;1097;103054;-87
2021/05/31 06:59:36;;;;;;;5.30;2.85;;;;;;;16.01;42.47;101006.44;124882;1097;103070;-80
2021/05/31 07:02:17;;;;;;;4.23;2.53;;;;;;;16.04;42.41;100998.24;124827;1104;103052;-85
2021/05/31 07:04:45;;;;;;;4.60;2.25;;;;;;;16.01;41.14;101001.92;125334;1104;103231;-85
2021/05/31 07:07:19;;;;;;;4.07;2.80;;;;;;;15.98;42.35;101010.12;125229;1104;102876;-82
2021/05/31 07:10:00;;;;;;;5.20;2.45;;;;;;;16.03;41.44;101005.44;125206;1096;103046;-84
2021/05/31 07:12:27;;;;;;;2.93;2.50;;;;;;;16.02;40.10;101005.48;125219;1097;103263;-84
2021/05/31 07:14:56;;;;;;;5.70;2.13;;;;;;;16.03;40.70;101009.92;125239;1097;103030;-83
2021/05/31 07:17:23;;;;;;;2.85;1.90;;;;;;;16.03;40.98;101007.23;125189;1104;103055;-84
2021/05/31 07:19:51;;;;;;;5.45;2.68;;;;;;;16.05;40.58;101003.55;125138;1104;103059;-83
2021/05/31 07:22:20;;;;;;;7.00;2.37;;;;;;;16.09;40.24;100992.67;125244;1097;103533;-82
2021/05/31 07:24:47;;;;;;;19.08;2.60;;;;;;;16.16;40.20;100999.57;125152;1104;103240;-83
2021/05/31 07:27:15;;;;;;;5.90;2.13;;;;;;;16.20;40.11;101001.20;125314;1104;103033;-85
2021/05/31 07:29:43;;;;;;;6.28;2.23;;;;;;;16.21;38.27;100990.38;125313;1096;103343;-83
2021/05/31 07:32:10;;;;;;;5.25;2.20;;;;;;;16.25;39.74;100987.55;125369;1096;103273;-80
2021/05/31 07:34:38;;;;;;;6.90;2.65;;;;;;;16.33;39.92;100994.39;125390;1104;102984;-83
2021/05/31 07:37:06;;;;;;;4.90;2.80;;;;;;;16.42;40.39;100998.52;126585;1097;103099;-82
2021/05/31 07:39:34;;;;;;;4.40;2.23;;;;;;;16.57;39.54;100986.25;125344;1104;103519;-83
2021/05/31 07:42:02;;;;;;;3.58;1.70;;;;;;;16.63;38.40;100988.66;125152;1101;103059;-85
2021/05/31 07:44:30;;;;;;;5.40;2.07;;;;;;;16.73;38.17;100983.78;125228;1104;103112;-84
2021/05/31 07:46:58;;;;;;;4.00;2.30;;;;;;;16.86;38.03;100982.31;125552;1101;102980;-83
2021/05/31 07:49:26;;;;;;;3.43;2.43;;;;;;;16.97;37.68;100975.63;125477;1101;103227;-82
2021/05/31 07:51:55;;;;;;;3.43;1.87;;;;;;;16.97;35.35;100978.33;125214;1096;103148;-85
2021/05/31 07:54:25;;;;;;;2.80;1.58;;;;;;;17.11;35.73;100977.70;125532;1096;103088;-80
2021/05/31 07:56:53;;;;;;;2.20;1.97;;;;;;;17.26;36.09;100978.83;125458;1101;103533;-86
2021/05/31 07:59:21;;;;;;;5.93;1.98;;;;;;;17.35;36.46;100970.33;125346;1096;103107;-82
2021/05/31 08:01:48;;;;;;;3.27;1.87;;;;;;;17.35;36.07;100983.80;125352;1101;103243;-83
2021/05/31 08:04:17;;;;;;;2.40;1.95;;;;;;;17.47;35.61;100976.98;125515;1101;103228;-81
2021/05/31 08:06:46;;;;;;;3.80;2.00;;;;;;;17.65;36.75;100973.44;125133;1096;103089;-84
2021/05/31 08:09:14;;;;;;;2.20;1.80;;;;;;;17.78;34.29;100978.23;125291;1104;103107;-81
2021/05/31 08:11:41;;;;;;;9.50;2.67;;;;;;;17.68;33.07;100981.36;125541;1101;103224;-83
2021/05/31 08:14:09;;;;;;;2.28;1.35;;;;;;;17.61;31.97;100979.91;125589;1101;103475;-84
2021/05/31 08:16:38;;;;;;;6.40;2.37;;;;;;;17.76;33.19;100972.06;125385;1101;103058;-80
2021/05/31 08:19:06;;;;;;;8.98;2.20;;;;;;;17.94;32.86;100978.42;125051;1101;103066;-87
2021/05/31 08:21:33;;;;;;;3.33;1.57;;;;;;;18.08;32.83;100975.08;125414;1101;103003;-84
2021/05/31 08:24:01;;;;;;;3.70;1.83;;;;;;;18.21;33.37;100971.69;125595;1101;103219;-87
2021/05/31 08:26:37;;;;;;;5.00;2.00;;;;;;;18.15;31.84;100969.31;125293;1101;103208;-81
2021/05/31 08:29:05;;;;;;;4.58;2.13;;;;;;;18.00;32.91;100972.75;125550;1096;103083;-92
2021/05/31 08:31:32;;;;;;;5.80;1.70;;;;;;;17.88;31.83;100972.34;125304;1101;103148;-87
2021/05/31 08:34:00;;;;;;;6.38;1.70;;;;;;;17.72;31.69;100969.50;125484;1101;103056;-84
2021/05/31 08:36:29;;;;;;;6.30;2.77;;;;;;;17.69;31.97;100958.88;125463;1096;103083;-87
2021/05/31 08:38:59;;;;;;;6.25;2.20;;;;;;;17.95;32.58;100966.70;125592;1101;103083;-84
2021/05/31 08:41:30;;;;;;;7.20;2.10;;;;;;;18.02;32.58;100968.13;125471;1101;103154;-86
2021/05/31 08:43:57;;;;;;;9.87;2.27;;;;;;;18.01;32.74;100969.97;125541;1101;102991;-85
2021/05/31 08:46:25;;;;;;;4.05;1.85;;;;;;;17.91;31.13;100967.77;125033;1096;103080;-88
2021/05/31 08:48:53;;;;;;;3.73;2.30;;;;;;;17.75;31.67;100970.31;125433;1096;103098;-85
2021/05/31 08:51:21;;;;;;;12.08;2.08;;;;;;;17.65;32.22;100972.58;125471;1096;103058;-85
2021/05/31 08:53:49;;;;;;;2.17;1.40;;;;;;;17.81;31.96;100962.81;125436;1096;103077;-81
2021/05/31 08:56:18;;;;;;;4.35;2.20;;;;;;;17.74;33.04;100976.64;125202;1104;103062;-88
2021/05/31 08:58:48;;;;;;;4.50;1.85;;;;;;;17.63;32.33;100975.31;125258;1096;103101;-90
2021/05/31 09:01:18;;;;;;;3.20;1.70;;;;;;;17.65;32.91;100976.13;125578;1096;103083;-90
2021/05/31 09:03:59;;;;;;;6.05;2.05;;;;;;;17.67;32.07;100968.87;125799;1101;103123;-84
2021/05/31 09:06:27;;;;;;;4.93;2.40;;;;;;;17.74;33.12;100961.37;125665;1101;103199;-86
2021/05/31 09:08:57;;;;;;;4.95;2.20;;;;;;;17.78;32.69;100962.97;125572;1101;103408;-91
2021/05/31 09:11:27;;;;;;;2.37;2.17;;;;;;;17.79;32.16;100967.38;125370;1101;103197;-91
2021/05/31 09:13:56;;;;;;;4.35;1.60;;;;;;;18.04;32.13;100969.81;125644;1101;103056;-94
2021/05/31 09:16:29;;;;;;;2.95;2.00;;;;;;;18.39;32.61;100969.02;125452;1101;103545;-89
2021/05/31 09:19:06;;;;;;;2.05;1.68;;;;;;;18.63;31.88;100963.34;125292;1101;103472;-89
2021/05/31 09:21:49;;;;;;;1.90;1.30;;;;;;;19.04;32.12;100961.22;124854;1105;103078;-87
2021/05/31 09:24:23;;;;;;;2.80;1.97;;;;;;;19.67;30.51;100950.66;126188;1101;103160;-89
2021/05/31 09:27:17;;;;;;;14.23;2.03;;;;;;;21.20;28.60;100945.34;125950;1101;103249;-88
2021/05/31 09:30:00;;;;;;;2.43;1.30;;;;;;;21.41;27.51;100953.10;126985;1101;103002;-89
2021/05/31 09:32:28;;;;;;;4.87;1.60;;;;;;;22.33;27.00;100940.84;127112;1101;103021;-87
2021/05/31 09:35:01;;;;;;;4.30;2.30;;;;;;;23.63;25.32;100937.32;126315;1101;102951;-93
2021/05/31 09:37:31;;;;;;;10.17;2.20;;;;;;;24.85;23.49;100947.27;125723;1101;103155;-90
2021/05/31 09:40:04;;;;;;;3.88;1.40;;;;;;;25.96;22.61;100945.72;126676;1096;103055;-92
2021/05/31 09:42:32;;;;;;;4.50;1.13;;;;;;;26.86;20.08;100949.19;125774;1101;103082;-85
2021/05/31 09:45:09;;;;;;;1.97;1.17;;;;;;;27.41;21.39;100937.16;125838;1101;103251;-90
2021/05/31 09:47:37;;;;;;;2.27;1.20;;;;;;;28.02;18.65;100936.23;125342;1096;103924;-88
2021/05/31 09:50:06;;;;;;;4.70;1.60;;;;;;;28.71;18.14;100933.55;125515;1101;104041;-88
2021/05/31 09:52:37;;;;;;;2.27;0.90;;;;;;;28.55;19.28;100936.84;125472;1101;103355;-89
2021/05/31 09:55:09;;;;;;;4.50;1.35;;;;;;;28.42;18.55;100926.16;125516;1101;103185;-91
2021/05/31 09:57:54;;;;;;;3.98;1.68;;;;;;;27.17;18.88;100941.89;125478;1104;103160;-92
2021/05/31 10:00:27;;;;;;;7.80;1.40;;;;;;;27.66;18.45;100927.62;125018;1104;103078;-86
2021/05/31 10:05:51;;;;;;;3.10;0.93;;;;;;;29.01;17.87;100921.52;125526;1101;103173;-88
2021/05/31 10:11:05;;;;;;;3.33;0.97;;;;;;;29.74;17.65;100919.95;125402;1101;103059;-92
2021/05/31 10:13:33;;;;;;;4.60;1.40;;;;;;;28.71;16.89;100926.21;125110;1096;103083;-87
2021/05/31 10:16:04;;;;;;;1.23;0.90;;;;;;;27.70;17.43;100923.59;125702;1101;102947;-92
2021/05/31 10:18:35;;;;;;;3.47;1.10;;;;;;;27.49;18.04;100923.66;125478;1096;103126;-93
2021/05/31 10:21:02;;;;;;;3.40;1.33;;;;;;;28.18;18.38;100924.73;127207;1101;102839;-91
2021/05/31 10:23:32;;;;;;;3.00;1.00;;;;;;;28.80;18.09;100916.23;125061;1101;103337;-90
2021/05/31 10:26:02;;;;;;;5.25;1.40;;;;;;;27.99;18.40;100926.40;124991;1096;103179;-93
2021/05/31 10:28:33;;;;;;;3.90;1.53;;;;;;;26.90;18.87;100925.17;125171;1103;103123;-88
2021/05/31 10:31:05;;;;;;;3.05;1.60;;;;;;;25.92;19.10;100919.69;125894;1096;104620;-87
2021/05/31 10:33:39;;;;;;;3.67;1.53;;;;;;;25.31;20.25;100920.08;125344;1096;103052;-84
2021/05/31 10:36:11;;;;;;;5.50;1.20;;;;;;;24.61;20.92;100916.48;125624;1096;103235;-93
2021/05/31 10:38:52;;;;;;;4.37;1.30;;;;;;;25.41;21.06;100918.39;125330;1101;103615;-94
2021/05/31 10:41:25;;;;;;;2.80;1.58;;;;;;;26.72;20.28;100913.98;125574;1101;103091;-92
2021/05/31 10:43:54;;;;;;;4.23;1.57;;;;;;;27.47;18.98;100904.65;125218;1096;103051;-86
2021/05/31 10:46:27;;;;;;;3.17;1.00;;;;;;;28.42;17.89;100905.13;125555;1096;103007;-86
2021/05/31 10:48:57;;;;;;;5.05;1.08;;;;;;;28.81;16.48;100902.37;124877;1101;103110;-91
2021/05/31 10:51:28;;;;;;;1.95;0.90;;;;;;;28.70;15.73;100897.06;125083;1096;103174;-90
2021/05/31 10:54:14;;;;;;;4.50;1.30;;;;;;;28.44;17.26;100889.39;125410;1096;103202;-91
2021/05/31 10:56:43;;;;;;;6.10;1.28;;;;;;;28.86;16.84;100885.49;126499;1096;103229;-92
2021/05/31 10:59:17;;;;;;;3.20;1.20;;;;;;;28.69;17.60;100889.84;125136;1102;103127;-93
2021/05/31 11:01:45;;;;;;;2.53;0.83;;;;;;;27.45;16.63;100890.23;125533;1096;103020;-85
2021/05/31 11:04:22;;;;;;;4.70;1.50;;;;;;;26.56;18.81;100903.48;125609;1101;103058;-88
2021/05/31 11:06:53;;;;;;;3.13;1.50;;;;;;;25.81;19.29;100897.89;125802;1101;103149;-89
2021/05/31 11:09:24;;;;;;;8.30;1.53;;;;;;;25.27;20.00;100899.52;125322;1101;103059;-85
2021/05/31 11:11:54;;;;;;;7.93;1.20;;;;;;;24.86;20.69;100891.80;125612;1101;103176;-83
2021/05/31 11:14:44;;;;;;;4.50;1.78;;;;;;;24.23;20.91;100879.44;125626;1101;103444;-87
2021/05/31 11:17:19;;;;;;;3.70;1.43;;;;;;;23.54;21.78;100876.31;125383;1096;102976;-89
2021/05/31 11:19:50;;;;;;;6.85;1.80;;;;;;;22.99;22.14;100886.58;125582;1096;103180;-91
2021/05/31 11:22:27;;;;;;;4.43;1.48;;;;;;;22.76;23.86;100892.76;126130;1101;103138;-86
2021/05/31 11:24:58;;;;;;;10.90;1.75;;;;;;;22.56;23.48;100888.72;126961;1104;101100;-84
2021/05/31 11:27:34;;;;;;;2.77;1.60;;;;;;;22.21;22.87;100885.55;126995;1101;103560;-92
2021/05/31 11:30:06;;;;;;;7.13;1.80;;;;;;;22.00;23.58;100887.00;125670;1101;103078;-87
2021/05/31 11:32:35;;;;;;;5.10;2.40;;;;;;;21.75;25.36;100894.03;125823;1101;103026;-86
2021/05/31 11:35:07;;;;;;;4.13;1.90;;;;;;;21.73;24.84;100887.85;125507;1101;103054;-87
2021/05/31 11:37:56;;;;;;;5.15;1.55;;;;;;;21.66;24.54;100873.83;125592;1101;103080;-88
2021/05/31 11:40:28;;;;;;;4.98;1.95;;;;;;;21.57;26.96;100865.44;125680;1096;103177;-91
2021/05/31 11:43:13;;;;;;;6.13;2.20;;;;;;;21.42;25.15;100878.09;125286;1098;103266;-89
2021/05/31 11:45:46;;;;;;;6.88;2.55;;;;;;;21.19;25.53;100881.31;125289;1098;103145;-90